Terminal Aerodrome Forecast
Issued by NWS Corpus Christi, TX

Home | Current Version | Previous Version | Text Only | Print | Product List | Glossary On
Versions: 1 2 3 4 5 6 7 8 9 10 11 12 13 14 15
000
FTUS44 KCRP 031131
TAFVCT
TAF
KVCT 031131Z 0312/0412 00000KT 4SM BR FEW007
      TEMPO 0312/0314 2SM BR SCT007
     FM031400 19005KT P6SM FEW015
     FM031900 16008KT P6SM SCT050 BKN200
     FM040200 16005KT P6SM FEW025 SCT200
     FM041000 00000KT 4SM BR FEW009=

USA.gov is the U.S. government's official web portal to all federal, state and local government web resources and services.